createdAt,value
2023-05-03T00:00:08.789Z,5.13
2023-05-03T00:03:13.615Z,5.50
2023-05-03T00:06:16.517Z,5.23
2023-05-03T00:09:19.060Z,5.30
2023-05-03T00:12:21.546Z,5.45
2023-05-03T00:15:24.056Z,5.68
2023-05-03T00:18:26.640Z,5.95
2023-05-03T00:21:29.966Z,5.40
2023-05-03T00:24:32.565Z,5.30
2023-05-03T00:27:35.068Z,6.10
2023-05-03T00:30:40.592Z,5.25
2023-05-03T00:33:43.621Z,5.43
2023-05-03T00:36:46.093Z,5.40
2023-05-03T00:39:49.030Z,5.70
2023-05-03T00:42:51.552Z,5.43
2023-05-03T00:45:59.345Z,5.45
2023-05-03T00:49:11.901Z,5.82
2023-05-03T00:52:14.642Z,5.60
2023-05-03T00:55:17.731Z,5.83
2023-05-03T00:58:23.146Z,5.60
2023-05-03T01:01:26.118Z,5.45
2023-05-03T01:04:29.534Z,5.75
2023-05-03T01:07:41.296Z,5.60
2023-05-03T01:10:52.496Z,6.30
2023-05-03T01:14:00.955Z,5.55
2023-05-03T01:17:09.875Z,5.63
2023-05-03T01:20:14.221Z,5.72
2023-05-03T01:23:32.976Z,6.00
2023-05-03T01:26:36.282Z,5.67
2023-05-03T01:29:38.806Z,5.50
2023-05-03T01:32:59.526Z,5.97
2023-05-03T01:36:30.790Z,5.65
2023-05-03T01:39:43.933Z,5.87
2023-05-03T01:42:48.222Z,5.43
2023-05-03T01:45:51.189Z,5.35
2023-05-03T01:48:53.761Z,5.78
2023-05-03T01:51:56.281Z,6.10
2023-05-03T01:55:00.148Z,7.20
2023-05-03T01:58:02.866Z,6.57
2023-05-03T02:01:08.752Z,7.70
2023-05-03T02:04:11.846Z,9.05
2023-05-03T02:07:14.584Z,8.75
2023-05-03T02:10:17.640Z,8.50
2023-05-03T02:13:20.220Z,8.13
2023-05-03T02:16:22.807Z,7.47
2023-05-03T02:19:27.228Z,7.65
2023-05-03T02:22:29.632Z,7.78
2023-05-03T02:25:32.271Z,7.30
2023-05-03T02:28:35.225Z,7.77
2023-05-03T02:31:38.839Z,7.47
2023-05-03T02:34:44.816Z,7.20
2023-05-03T02:37:47.575Z,8.23
2023-05-03T02:40:50.343Z,7.40
2023-05-03T02:43:52.964Z,8.00
2023-05-03T02:46:55.841Z,7.28
2023-05-03T02:49:59.709Z,7.80
2023-05-03T02:53:04.270Z,7.15
2023-05-03T02:56:07.514Z,6.83
2023-05-03T02:59:10.039Z,6.03
2023-05-03T03:02:12.761Z,7.00
2023-05-03T03:05:15.250Z,7.28
2023-05-03T03:08:23.128Z,6.55
2023-05-03T03:11:26.817Z,6.63
2023-05-03T03:14:29.976Z,6.70
2023-05-03T03:17:32.608Z,7.28
2023-05-03T03:20:35.568Z,7.03
2023-05-03T03:23:38.832Z,7.10
2023-05-03T03:26:41.521Z,7.30
2023-05-03T03:29:44.009Z,7.43
2023-05-03T03:32:49.130Z,6.90
2023-05-03T03:35:59.371Z,7.00
2023-05-03T03:39:07.315Z,7.35
2023-05-03T03:42:15.023Z,7.30
2023-05-03T03:45:19.122Z,6.30
2023-05-03T03:48:21.654Z,7.13
2023-05-03T03:51:24.887Z,7.03
2023-05-03T03:54:27.961Z,8.20
2023-05-03T03:57:31.606Z,8.40
2023-05-03T04:00:38.413Z,8.20
2023-05-03T04:03:48.143Z,8.18
2023-05-03T04:06:51.190Z,8.35
2023-05-03T04:09:53.997Z,7.32
2023-05-03T04:12:56.604Z,7.17
2023-05-03T04:16:02.514Z,7.40
2023-05-03T04:19:05.797Z,7.38
2023-05-03T04:22:11.294Z,6.93
2023-05-03T04:25:17.353Z,7.20
2023-05-03T04:28:25.855Z,6.47
2023-05-03T04:31:28.819Z,6.53
2023-05-03T04:34:33.515Z,6.10
2023-05-03T04:37:40.156Z,6.63
2023-05-03T04:40:43.009Z,6.55
2023-05-03T04:43:46.655Z,6.60
2023-05-03T04:46:51.054Z,6.20
2023-05-03T04:49:54.166Z,6.00
2023-05-03T04:52:57.213Z,7.00
2023-05-03T04:56:00.905Z,6.63
2023-05-03T04:59:05.589Z,6.23
2023-05-03T05:02:09.657Z,5.90
2023-05-03T05:05:12.564Z,6.53
2023-05-03T05:08:16.099Z,6.90
2023-05-03T05:11:25.199Z,6.10
2023-05-03T05:14:29.845Z,6.37
2023-05-03T05:17:32.389Z,6.43
2023-05-03T05:20:37.341Z,6.47
2023-05-03T05:23:40.920Z,6.05
2023-05-03T05:26:43.747Z,6.43
2023-05-03T05:29:48.214Z,6.27
2023-05-03T05:32:51.432Z,6.70
2023-05-03T05:35:54.003Z,6.97
2023-05-03T05:38:58.594Z,6.60
2023-05-03T05:42:01.964Z,6.25
2023-05-03T05:45:07.870Z,6.77
2023-05-03T05:48:11.610Z,6.50
2023-05-03T05:51:14.333Z,5.68
2023-05-03T05:54:18.257Z,5.63
2023-05-03T05:57:21.070Z,5.80
2023-05-03T06:00:24.466Z,5.40
2023-05-03T06:03:27.596Z,5.77
2023-05-03T06:06:31.534Z,5.50
2023-05-03T06:09:34.178Z,5.70
2023-05-03T06:12:39.517Z,5.90
2023-05-03T06:15:47.426Z,5.77
2023-05-03T06:18:50.884Z,5.63
2023-05-03T06:21:53.680Z,4.78
2023-05-03T06:24:56.962Z,4.68
2023-05-03T06:28:00.559Z,4.35
2023-05-03T06:31:06.979Z,4.80
2023-05-03T06:34:10.466Z,4.80
2023-05-03T06:37:15.784Z,5.32
2023-05-03T06:40:18.817Z,5.22
2023-05-03T06:43:22.296Z,5.55
2023-05-03T06:46:36.818Z,6.10
2023-05-03T06:49:39.788Z,5.70
2023-05-03T06:52:42.492Z,5.45
2023-05-03T06:55:46.320Z,5.40
2023-05-03T06:58:49.542Z,5.18
2023-05-03T07:01:52.193Z,5.30
2023-05-03T07:04:55.039Z,5.20
2023-05-03T07:07:57.506Z,5.60
2023-05-03T07:11:00.024Z,5.30
2023-05-03T07:14:02.498Z,5.13
2023-05-03T07:17:06.113Z,5.23
2023-05-03T07:20:09.363Z,5.00
2023-05-03T07:23:12.041Z,4.97
2023-05-03T07:26:14.683Z,4.68
2023-05-03T07:29:17.368Z,4.40
2023-05-03T07:32:19.914Z,4.57
2023-05-03T07:35:23.526Z,5.30
2023-05-03T07:38:26.244Z,4.80
2023-05-03T07:41:28.826Z,4.20
2023-05-03T07:44:31.457Z,4.40
2023-05-03T07:47:37.834Z,4.10
2023-05-03T07:50:46.686Z,4.70
2023-05-03T07:53:49.523Z,4.32
2023-05-03T07:56:53.768Z,4.38
2023-05-03T07:59:57.657Z,4.63
2023-05-03T08:03:02.696Z,4.90
2023-05-03T08:06:05.969Z,4.50
2023-05-03T08:09:09.236Z,4.65
2023-05-03T08:12:11.768Z,3.53
2023-05-03T08:15:14.584Z,3.55
2023-05-03T08:18:17.083Z,3.60
2023-05-03T08:21:20.272Z,3.87
2023-05-03T08:24:23.552Z,3.40
2023-05-03T08:27:28.627Z,3.10
2023-05-03T08:30:31.568Z,3.35
2023-05-03T08:33:34.259Z,3.27
2023-05-03T08:36:38.264Z,3.03
2023-05-03T08:39:40.853Z,3.30
2023-05-03T08:42:45.602Z,3.35
2023-05-03T08:45:48.692Z,3.35
2023-05-03T08:48:53.190Z,3.40
2023-05-03T08:51:56.931Z,3.50
2023-05-03T08:54:59.680Z,3.28
2023-05-03T08:58:13.347Z,3.20
2023-05-03T09:01:16.335Z,3.10
2023-05-03T09:04:19.160Z,3.50
2023-05-03T09:07:21.758Z,3.20
2023-05-03T09:10:26.293Z,3.30
2023-05-03T09:13:32.113Z,2.92
2023-05-03T09:16:35.012Z,3.60
2023-05-03T09:19:53.523Z,3.20
2023-05-03T09:22:56.201Z,3.17
2023-05-03T09:26:00.196Z,3.20
2023-05-03T09:29:04.863Z,3.05
2023-05-03T09:32:08.708Z,3.15
2023-05-03T09:35:11.728Z,3.00
2023-05-03T09:38:27.292Z,3.13
2023-05-03T09:41:31.727Z,3.22
2023-05-03T09:44:44.364Z,3.47
2023-05-03T09:47:52.880Z,3.20
2023-05-03T09:50:56.480Z,3.20
2023-05-03T09:53:59.472Z,3.43
2023-05-03T09:57:06.014Z,3.90
2023-05-03T10:00:12.037Z,3.65
2023-05-03T10:03:24.611Z,3.42
2023-05-03T10:06:41.869Z,3.50
2023-05-03T10:09:48.070Z,3.17
2023-05-03T10:12:54.022Z,3.65
2023-05-03T10:16:04.029Z,3.53
2023-05-03T10:19:21.647Z,3.45
2023-05-03T10:22:24.788Z,4.20
2023-05-03T10:25:27.313Z,3.33
2023-05-03T10:28:29.846Z,3.45
2023-05-03T10:31:46.104Z,3.50
2023-05-03T10:34:56.982Z,3.67
2023-05-03T10:37:59.793Z,4.03
2023-05-03T10:41:03.964Z,3.87
2023-05-03T10:44:26.355Z,3.70
2023-05-03T10:47:29.018Z,3.80
2023-05-03T10:50:31.913Z,4.10
2023-05-03T10:53:40.621Z,3.50
2023-05-03T10:56:52.830Z,3.63
2023-05-03T10:59:55.464Z,3.60
2023-05-03T11:03:19.004Z,3.90
2023-05-03T11:06:50.022Z,3.80
2023-05-03T11:09:52.811Z,3.37
2023-05-03T11:12:55.322Z,3.67
2023-05-03T11:15:57.976Z,3.80
2023-05-03T11:19:03.867Z,3.70
2023-05-03T11:22:09.773Z,3.35
2023-05-03T11:25:12.353Z,3.40
2023-05-03T11:28:16.363Z,3.57
2023-05-03T11:31:21.858Z,3.60
2023-05-03T11:34:24.586Z,3.70
2023-05-03T11:37:27.020Z,4.55
2023-05-03T11:40:29.565Z,3.53
2023-05-03T11:43:32.632Z,3.57
2023-05-03T11:46:38.108Z,3.60
2023-05-03T11:49:41.067Z,3.75
2023-05-03T11:52:44.139Z,3.50
2023-05-03T11:55:48.247Z,3.37
2023-05-03T11:58:58.607Z,3.70
2023-05-03T12:02:04.416Z,3.22
2023-05-03T12:05:09.595Z,3.53
2023-05-03T12:08:15.180Z,3.38
2023-05-03T12:11:21.336Z,3.73
2023-05-03T12:14:24.911Z,4.03
2023-05-03T12:17:43.995Z,3.65
2023-05-03T12:21:30.512Z,3.65
2023-05-03T12:24:24.567Z,3.85
2023-05-03T12:27:28.219Z,4.00
2023-05-03T12:30:33.964Z,4.07
2023-05-03T12:33:38.871Z,4.10
2023-05-03T12:36:43.869Z,3.97
2023-05-03T12:39:53.661Z,4.82
2023-05-03T12:43:08.303Z,4.10
2023-05-03T12:49:22.667Z,3.75
2023-05-03T12:55:36.921Z,3.85
2023-05-03T12:59:11.551Z,3.97
2023-05-03T13:05:33.822Z,3.75
2023-05-03T13:08:38.235Z,3.72
2023-05-03T13:11:41.053Z,3.75
2023-05-03T13:14:43.863Z,4.00
2023-05-03T13:17:47.604Z,3.80
2023-05-03T13:20:52.087Z,4.28
2023-05-03T13:23:54.935Z,3.88
2023-05-03T13:26:57.744Z,4.43
2023-05-03T13:30:02.061Z,4.07
2023-05-03T13:33:04.999Z,4.50
2023-05-03T13:36:08.906Z,3.83
2023-05-03T13:39:12.190Z,4.10
2023-05-03T13:42:15.061Z,4.03
2023-05-03T13:45:18.579Z,3.77
2023-05-03T13:48:21.700Z,3.57
2023-05-03T13:51:25.829Z,3.80
2023-05-03T13:54:30.133Z,3.90
2023-05-03T13:57:34.140Z,3.40
2023-05-03T14:00:38.467Z,3.90
2023-05-03T14:03:41.149Z,3.60
2023-05-03T14:06:43.603Z,4.00
2023-05-03T14:09:46.102Z,3.60
2023-05-03T14:12:48.669Z,4.10
2023-05-03T14:15:51.899Z,4.03
2023-05-03T14:18:54.706Z,3.77
2023-05-03T14:21:59.488Z,3.80
2023-05-03T14:25:02.585Z,3.88
2023-05-03T14:28:05.486Z,3.60
2023-05-03T14:31:12.033Z,3.37
2023-05-03T14:34:14.801Z,3.90
2023-05-03T14:37:17.497Z,3.28
2023-05-03T14:40:21.029Z,3.50
2023-05-03T14:43:23.654Z,3.35
2023-05-03T14:46:26.152Z,3.57
2023-05-03T14:49:29.925Z,3.80
2023-05-03T14:52:33.184Z,3.55
2023-05-03T14:55:35.715Z,3.40
2023-05-03T14:58:38.302Z,3.38
2023-05-03T15:01:40.990Z,3.47
2023-05-03T15:04:43.487Z,3.20
2023-05-03T15:07:46.068Z,3.60
2023-05-03T15:10:48.990Z,3.65
2023-05-03T15:13:51.523Z,3.60
2023-05-03T15:16:54.304Z,3.40
2023-05-03T15:19:56.815Z,3.70
2023-05-03T15:22:59.451Z,3.50
2023-05-03T15:26:02.177Z,3.53
2023-05-03T15:29:04.823Z,3.80
2023-05-03T15:32:07.498Z,3.90
2023-05-03T15:35:10.499Z,3.60
2023-05-03T15:38:13.066Z,3.63
2023-05-03T15:41:16.256Z,3.80
2023-05-03T15:44:18.822Z,3.42
2023-05-03T15:47:23.415Z,3.73
2023-05-03T15:50:26.062Z,3.50
2023-05-03T15:53:28.544Z,3.88
2023-05-03T15:56:31.481Z,4.05
2023-05-03T15:59:33.984Z,3.30
2023-05-03T16:02:37.450Z,3.20
2023-05-03T16:05:40.100Z,3.03
2023-05-03T16:08:42.642Z,3.00
2023-05-03T16:11:45.050Z,3.50
2023-05-03T16:14:47.653Z,3.08
2023-05-03T16:17:50.177Z,3.03
2023-05-03T16:20:54.525Z,3.00
2023-05-03T16:23:58.694Z,3.20
2023-05-03T16:27:02.174Z,3.28
2023-05-03T16:30:05.710Z,3.00
2023-05-03T16:33:12.094Z,3.30
2023-05-03T16:36:14.864Z,3.50
2023-05-03T16:39:17.923Z,3.85
2023-05-03T16:42:20.489Z,3.20
2023-05-03T16:45:22.917Z,3.42
2023-05-03T16:48:29.713Z,3.80
2023-05-03T16:51:33.753Z,3.80
2023-05-03T16:54:37.894Z,3.75
2023-05-03T16:57:41.070Z,3.88
2023-05-03T17:00:44.608Z,3.60
2023-05-03T17:03:47.130Z,4.00
2023-05-03T17:06:49.628Z,4.30
2023-05-03T17:09:52.665Z,4.40
2023-05-03T17:12:56.414Z,4.57
2023-05-03T17:15:58.901Z,4.47
2023-05-03T17:19:01.446Z,4.60
2023-05-03T17:22:03.879Z,4.20
2023-05-03T17:25:07.838Z,3.90
2023-05-03T17:28:10.622Z,4.25
2023-05-03T17:31:13.349Z,4.45
2023-05-03T17:34:15.925Z,4.60
2023-05-03T17:37:18.394Z,4.80
2023-05-03T17:40:20.879Z,5.03
2023-05-03T17:43:23.687Z,4.50
2023-05-03T17:46:26.334Z,4.50
2023-05-03T17:49:29.620Z,3.70
2023-05-03T17:52:32.995Z,4.00
2023-05-03T17:55:38.114Z,4.15
2023-05-03T17:58:41.249Z,3.72
2023-05-03T18:01:43.775Z,3.42
2023-05-03T18:04:46.981Z,3.73
2023-05-03T18:07:49.665Z,3.67
2023-05-03T18:10:52.287Z,3.80
2023-05-03T18:13:54.870Z,3.60
2023-05-03T18:16:57.454Z,3.50
2023-05-03T18:20:00.040Z,3.60
2023-05-03T18:23:02.793Z,3.80
2023-05-03T18:26:05.410Z,3.65
2023-05-03T18:29:08.035Z,3.50
2023-05-03T18:32:10.521Z,3.67
2023-05-03T18:35:13.134Z,3.60
2023-05-03T18:38:16.553Z,3.60
2023-05-03T18:41:19.755Z,3.55
2023-05-03T18:44:25.404Z,3.53
2023-05-03T18:47:28.139Z,3.58
2023-05-03T18:50:31.641Z,3.23
2023-05-03T18:53:34.641Z,3.50
2023-05-03T18:56:40.100Z,3.80
2023-05-03T18:59:56.664Z,3.67
2023-05-03T19:03:02.683Z,3.63
2023-05-03T19:06:07.665Z,3.60
2023-05-03T19:09:11.836Z,3.43
2023-05-03T19:12:14.572Z,3.70
2023-05-03T19:15:17.405Z,3.85
2023-05-03T19:18:20.342Z,3.72
2023-05-03T19:21:23.245Z,4.23
2023-05-03T19:24:26.017Z,3.93
2023-05-03T19:27:28.532Z,3.85
2023-05-03T19:30:31.769Z,3.85
2023-05-03T19:33:35.704Z,4.20
2023-05-03T19:36:39.341Z,3.77
2023-05-03T19:39:41.788Z,4.10
2023-05-03T19:42:44.479Z,4.00
2023-05-03T19:45:47.020Z,3.92
2023-05-03T19:48:49.722Z,4.20
2023-05-03T19:51:56.009Z,4.40
2023-05-03T19:54:58.717Z,3.83
2023-05-03T19:58:02.561Z,3.97
2023-05-03T20:01:06.149Z,4.15
2023-05-03T20:04:09.008Z,3.83
2023-05-03T20:07:11.649Z,4.00
2023-05-03T20:10:14.121Z,3.93
2023-05-03T20:13:19.729Z,4.22
2023-05-03T20:16:22.498Z,4.38
2023-05-03T20:19:25.473Z,3.80
2023-05-03T20:22:28.060Z,3.93
2023-05-03T20:25:30.497Z,3.80
2023-05-03T20:28:35.057Z,3.45
2023-05-03T20:31:39.630Z,3.42
2023-05-03T20:34:44.465Z,3.70
2023-05-03T20:37:46.995Z,3.60
2023-05-03T20:40:53.808Z,4.03
2023-05-03T20:43:56.258Z,3.42
2023-05-03T20:46:59.077Z,3.35
2023-05-03T20:50:01.951Z,3.70
2023-05-03T20:53:04.744Z,3.70
2023-05-03T20:56:07.962Z,3.70
2023-05-03T20:59:10.568Z,3.90
2023-05-03T21:02:13.266Z,3.83
2023-05-03T21:05:15.806Z,3.75
2023-05-03T21:08:18.337Z,4.10
2023-05-03T21:11:23.394Z,3.90
2023-05-03T21:14:25.914Z,3.90
2023-05-03T21:17:28.448Z,3.75
2023-05-03T21:20:31.614Z,3.63
2023-05-03T21:23:34.239Z,3.63
2023-05-03T21:26:37.023Z,3.77
2023-05-03T21:29:39.590Z,3.95
2023-05-03T21:32:44.021Z,3.60
2023-05-03T21:35:46.503Z,3.78
2023-05-03T21:38:50.935Z,4.20
2023-05-03T21:41:55.433Z,3.80
2023-05-03T21:44:58.117Z,3.88
2023-05-03T21:48:01.956Z,4.00
2023-05-03T21:51:05.605Z,3.80
2023-05-03T21:54:08.207Z,4.03
2023-05-03T21:57:10.610Z,3.83
2023-05-03T22:00:17.728Z,3.90
2023-05-03T22:03:20.353Z,4.07
2023-05-03T22:06:22.992Z,3.92
2023-05-03T22:09:25.868Z,4.20
2023-05-03T22:12:28.431Z,3.93
2023-05-03T22:15:31.932Z,4.10
2023-05-03T22:18:35.165Z,3.80
2023-05-03T22:21:37.806Z,3.72
2023-05-03T22:24:41.200Z,3.53
2023-05-03T22:27:43.691Z,3.80
2023-05-03T22:30:49.228Z,3.58
2023-05-03T22:33:53.148Z,4.00
2023-05-03T22:36:56.040Z,3.97
2023-05-03T22:39:58.633Z,3.93
2023-05-03T22:43:01.163Z,3.60
2023-05-03T22:46:04.084Z,3.80
2023-05-03T22:49:07.420Z,3.80
2023-05-03T22:52:09.871Z,3.88
2023-05-03T22:55:12.538Z,3.77
2023-05-03T22:58:15.133Z,3.90
2023-05-03T23:01:18.259Z,3.65
2023-05-03T23:04:20.852Z,4.25
2023-05-03T23:07:23.390Z,3.80
2023-05-03T23:10:26.008Z,4.00
2023-05-03T23:13:28.552Z,4.60
2023-05-03T23:16:31.228Z,3.65
2023-05-03T23:19:34.344Z,3.83
2023-05-03T23:22:39.307Z,3.55
2023-05-03T23:25:42.583Z,4.60
2023-05-03T23:28:46.269Z,3.70
2023-05-03T23:31:50.084Z,3.75
2023-05-03T23:34:53.086Z,3.70
2023-05-03T23:37:55.581Z,3.80
2023-05-03T23:40:58.494Z,3.60
2023-05-03T23:44:00.974Z,3.70
2023-05-03T23:47:03.543Z,3.85
2023-05-03T23:50:06.955Z,3.95
2023-05-03T23:53:10.461Z,3.83
2023-05-03T23:56:13.338Z,3.87
2023-05-03T23:59:15.812Z,3.80
